sensor_id;sensor_type;location;lat;lon;timestamp;pressure;altitude;pressure_sealevel;temperature;humidity
73842;BME280;62184;52.006;5.924;2022-11-15T00:02:17;100128.22;;;9.48;70.38
73842;BME280;62184;52.006;5.924;2022-11-15T00:04:43;100126.38;;;9.50;70.28
73842;BME280;62184;52.006;5.924;2022-11-15T00:07:10;100121.16;;;9.47;70.77
73842;BME280;62184;52.006;5.924;2022-11-15T00:09:36;100129.97;;;9.49;70.88
73842;BME280;62184;52.006;5.924;2022-11-15T00:12:03;100132.44;;;9.55;71.13
73842;BME280;62184;52.006;5.924;2022-11-15T00:14:30;100130.50;;;9.60;70.97
73842;BME280;62184;52.006;5.924;2022-11-15T00:16:59;100123.34;;;9.62;70.90
73842;BME280;62184;52.006;5.924;2022-11-15T00:19:25;100126.00;;;9.62;70.97
73842;BME280;62184;52.006;5.924;2022-11-15T00:21:51;100126.00;;;9.62;70.99
73842;BME280;62184;52.006;5.924;2022-11-15T00:24:18;100119.81;;;9.62;71.08
73842;BME280;62184;52.006;5.924;2022-11-15T00:26:44;100119.00;;;9.58;71.23
73842;BME280;62184;52.006;5.924;2022-11-15T00:29:10;100118.22;;;9.55;71.22
73842;BME280;62184;52.006;5.924;2022-11-15T00:31:37;100115.63;;;9.53;71.37
73842;BME280;62184;52.006;5.924;2022-11-15T00:34:06;100108.44;;;9.55;71.55
73842;BME280;62184;52.006;5.924;2022-11-15T00:36:33;100107.44;;;9.59;71.32
73842;BME280;62184;52.006;5.924;2022-11-15T00:38:59;100108.19;;;9.63;71.40
73842;BME280;62184;52.006;5.924;2022-11-15T00:41:26;100101.94;;;9.64;71.64
73842;BME280;62184;52.006;5.924;2022-11-15T00:43:52;100109.94;;;9.64;71.60
73842;BME280;62184;52.006;5.924;2022-11-15T00:46:19;100102.72;;;9.68;71.72
73842;BME280;62184;52.006;5.924;2022-11-15T00:48:45;100102.72;;;9.68;71.76
73842;BME280;62184;52.006;5.924;2022-11-15T00:51:14;100095.56;;;9.70;71.59
73842;BME280;62184;52.006;5.924;2022-11-15T00:53:40;100088.44;;;9.70;71.70
73842;BME280;62184;52.006;5.924;2022-11-15T00:56:07;100094.63;;;9.71;71.74
73842;BME280;62184;52.006;5.924;2022-11-15T00:58:33;100087.38;;;9.74;71.78
73842;BME280;62184;52.006;5.924;2022-11-15T01:01:07;100094.41;;;9.77;71.88
73842;BME280;62184;52.006;5.924;2022-11-15T01:03:35;100087.13;;;9.82;71.85
73842;BME280;62184;52.006;5.924;2022-11-15T01:06:02;100084.28;;;9.88;71.73
73842;BME280;62184;52.006;5.924;2022-11-15T01:08:31;100085.03;;;9.91;71.81
73842;BME280;62184;52.006;5.924;2022-11-15T01:11:00;100075.06;;;9.96;71.75
73842;BME280;62184;52.006;5.924;2022-11-15T01:13:30;100075.81;;;10.00;71.58
73842;BME280;62184;52.006;5.924;2022-11-15T01:15:57;100078.41;;;10.03;71.63
73842;BME280;62184;52.006;5.924;2022-11-15T01:18:24;100072.19;;;10.02;71.61
73842;BME280;62184;52.006;5.924;2022-11-15T01:20:50;100079.38;;;10.00;71.76
73842;BME280;62184;52.006;5.924;2022-11-15T01:23:17;100070.41;;;10.03;71.78
73842;BME280;62184;52.006;5.924;2022-11-15T01:25:46;100068.44;;;10.08;71.66
73842;BME280;62184;52.006;5.924;2022-11-15T01:28:12;100060.31;;;10.11;71.61
73842;BME280;62184;52.006;5.924;2022-11-15T01:30:38;100062.78;;;10.17;71.58
73842;BME280;62184;52.006;5.924;2022-11-15T01:33:05;100052.75;;;10.24;71.31
73842;BME280;62184;52.006;5.924;2022-11-15T01:35:31;100056.13;;;10.29;71.39
73842;BME280;62184;52.006;5.924;2022-11-15T01:37:58;100049.91;;;10.28;71.48
73842;BME280;62184;52.006;5.924;2022-11-15T01:40:24;100047.25;;;10.28;71.66
73842;BME280;62184;52.006;5.924;2022-11-15T01:42:53;100036.56;;;10.28;71.62
73842;BME280;62184;52.006;5.924;2022-11-15T01:45:20;100039.25;;;10.28;71.56
73842;BME280;62184;52.006;5.924;2022-11-15T01:47:49;100039.94;;;10.33;71.94
73842;BME280;62184;52.006;5.924;2022-11-15T01:50:22;100038.97;;;10.36;71.71
73842;BME280;62184;52.006;5.924;2022-11-15T01:52:52;100044.13;;;10.40;71.98
73842;BME280;62184;52.006;5.924;2022-11-15T01:55:20;100039.50;;;10.46;71.64
73842;BME280;62184;52.006;5.924;2022-11-15T01:57:55;100039.50;;;10.46;71.62
73842;BME280;62184;52.006;5.924;2022-11-15T02:00:24;100045.56;;;10.49;71.96
73842;BME280;62184;52.006;5.924;2022-11-15T02:02:50;100044.41;;;10.56;71.84
73842;BME280;62184;52.006;5.924;2022-11-15T02:05:17;100039.78;;;10.61;71.74
73842;BME280;62184;52.006;5.924;2022-11-15T02:07:44;100043.16;;;10.66;71.53
73842;BME280;62184;52.006;5.924;2022-11-15T02:10:17;100036.81;;;10.69;71.55
73842;BME280;62184;52.006;5.924;2022-11-15T02:12:45;100034.97;;;10.71;71.56
73842;BME280;62184;52.006;5.924;2022-11-15T02:15:16;100039.28;;;10.75;71.50
73842;BME280;62184;52.006;5.924;2022-11-15T02:17:57;100035.59;;;10.79;71.56
73842;BME280;62184;52.006;5.924;2022-11-15T02:20:42;100035.38;;;10.84;71.53
73842;BME280;62184;52.006;5.924;2022-11-15T02:30:25;100027.69;;;10.98;71.24
73842;BME280;62184;52.006;5.924;2022-11-15T02:33:03;100028.34;;;11.04;71.17
73842;BME280;62184;52.006;5.924;2022-11-15T02:35:44;100023.69;;;11.09;70.67
73842;BME280;62184;52.006;5.924;2022-11-15T02:38:24;100030.72;;;11.12;70.79
73842;BME280;62184;52.006;5.924;2022-11-15T02:41:02;100011.84;;;11.15;70.93
73842;BME280;62184;52.006;5.924;2022-11-15T02:43:38;100019.72;;;11.20;70.64
73842;BME280;62184;52.006;5.924;2022-11-15T02:46:18;100005.41;;;11.21;70.65
73842;BME280;62184;52.006;5.924;2022-11-15T02:48:50;99999.94;;;11.24;70.47
73842;BME280;62184;52.006;5.924;2022-11-15T02:51:17;99999.94;;;11.24;70.50
73842;BME280;62184;52.006;5.924;2022-11-15T02:53:44;100002.59;;;11.24;70.55
73842;BME280;62184;52.006;5.924;2022-11-15T02:56:11;100002.59;;;11.24;70.73
73842;BME280;62184;52.006;5.924;2022-11-15T02:58:57;100003.47;;;11.24;70.55
73842;BME280;62184;52.006;5.924;2022-11-15T03:01:55;99998.94;;;11.26;70.45
73842;BME280;62184;52.006;5.924;2022-11-15T03:04:38;99989.94;;;11.29;70.67
73842;BME280;62184;52.006;5.924;2022-11-15T03:07:14;99988.91;;;11.31;70.68
73842;BME280;62184;52.006;5.924;2022-11-15T03:09:50;99988.84;;;11.33;70.73
73842;BME280;62184;52.006;5.924;2022-11-15T03:12:27;99985.38;;;11.31;70.64
73842;BME280;62184;52.006;5.924;2022-11-15T03:15:02;99975.50;;;11.33;70.80
73842;BME280;62184;52.006;5.924;2022-11-15T03:17:40;99979.84;;;11.35;70.72
73842;BME280;62184;52.006;5.924;2022-11-15T03:20:14;99978.88;;;11.38;71.11
73842;BME280;62184;52.006;5.924;2022-11-15T03:22:44;99973.38;;;11.41;70.67
73842;BME280;62184;52.006;5.924;2022-11-15T03:25:17;99981.22;;;11.45;70.81
73842;BME280;62184;52.006;5.924;2022-11-15T03:27:50;99982.88;;;11.48;70.92
73842;BME280;62184;52.006;5.924;2022-11-15T03:30:20;99981.00;;;11.50;70.96
73842;BME280;62184;52.006;5.924;2022-11-15T03:32:53;99979.13;;;11.52;71.08
73842;BME280;62184;52.006;5.924;2022-11-15T03:35:23;99969.31;;;11.52;71.28
73842;BME280;62184;52.006;5.924;2022-11-15T03:37:57;99970.91;;;11.57;71.21
73842;BME280;62184;52.006;5.924;2022-11-15T03:40:34;99972.53;;;11.61;71.34
73842;BME280;62184;52.006;5.924;2022-11-15T03:43:08;99970.66;;;11.63;71.55
73842;BME280;62184;52.006;5.924;2022-11-15T03:45:43;99970.50;;;11.66;71.55
73842;BME280;62184;52.006;5.924;2022-11-15T03:48:22;99977.53;;;11.68;71.42
73842;BME280;62184;52.006;5.924;2022-11-15T03:50:52;99978.34;;;11.70;71.45
73842;BME280;62184;52.006;5.924;2022-11-15T03:53:19;99983.66;;;11.72;71.49
73842;BME280;62184;52.006;5.924;2022-11-15T03:55:46;99983.50;;;11.75;71.66
73842;BME280;62184;52.006;5.924;2022-11-15T03:58:12;99978.09;;;11.76;71.82
73842;BME280;62184;52.006;5.924;2022-11-15T04:00:39;99985.19;;;11.77;71.96
73842;BME280;62184;52.006;5.924;2022-11-15T04:03:05;99983.22;;;11.81;71.71
73842;BME280;62184;52.006;5.924;2022-11-15T04:05:34;99983.16;;;11.82;71.80
73842;BME280;62184;52.006;5.924;2022-11-15T04:08:00;99983.84;;;11.87;72.10
73842;BME280;62184;52.006;5.924;2022-11-15T04:10:27;99996.94;;;11.93;71.79
73842;BME280;62184;52.006;5.924;2022-11-15T04:12:53;99987.81;;;11.98;71.79
73842;BME280;62184;52.006;5.924;2022-11-15T04:15:22;99990.31;;;12.02;71.98
73842;BME280;62184;52.006;5.924;2022-11-15T04:17:50;99991.03;;;12.06;71.59
73842;BME280;62184;52.006;5.924;2022-11-15T04:20:20;99990.91;;;12.09;71.83
73842;BME280;62184;52.006;5.924;2022-11-15T04:22:52;99989.84;;;12.13;72.06
73842;BME280;62184;52.006;5.924;2022-11-15T04:25:19;99984.25;;;12.19;72.08
73842;BME280;62184;52.006;5.924;2022-11-15T04:27:45;99983.16;;;12.23;72.17
73842;BME280;62184;52.006;5.924;2022-11-15T04:30:12;99974.00;;;12.28;72.12
73842;BME280;62184;52.006;5.924;2022-11-15T04:32:38;99973.84;;;12.32;72.40
73842;BME280;62184;52.006;5.924;2022-11-15T04:35:05;99974.50;;;12.37;72.35
73842;BME280;62184;52.006;5.924;2022-11-15T04:37:32;99980.50;;;12.42;71.96
73842;BME280;62184;52.006;5.924;2022-11-15T04:40:01;99980.44;;;12.43;72.30
73842;BME280;62184;52.006;5.924;2022-11-15T04:42:27;99978.56;;;12.45;72.17
73842;BME280;62184;52.006;5.924;2022-11-15T04:44:53;99978.50;;;12.47;72.22
73842;BME280;62184;52.006;5.924;2022-11-15T04:47:20;99975.84;;;12.47;72.43
73842;BME280;62184;52.006;5.924;2022-11-15T04:49:46;99977.34;;;12.52;72.30
73842;BME280;62184;52.006;5.924;2022-11-15T04:52:13;99974.38;;;12.58;72.24
73842;BME280;62184;52.006;5.924;2022-11-15T04:54:39;99972.38;;;12.63;72.16
73842;BME280;62184;52.006;5.924;2022-11-15T04:57:08;99978.38;;;12.68;71.96
73842;BME280;62184;52.006;5.924;2022-11-15T04:59:34;99971.06;;;12.72;71.98
73842;BME280;62184;52.006;5.924;2022-11-15T05:02:01;99976.31;;;12.74;72.06
73842;BME280;62184;52.006;5.924;2022-11-15T05:04:27;99979.75;;;12.77;71.73
73842;BME280;62184;52.006;5.924;2022-11-15T05:06:54;99977.13;;;12.76;71.95
73842;BME280;62184;52.006;5.924;2022-11-15T05:09:20;99976.41;;;12.72;72.03
73842;BME280;62184;52.006;5.924;2022-11-15T05:11:47;99975.63;;;12.70;71.90
73842;BME280;62184;52.006;5.924;2022-11-15T05:14:17;99979.16;;;12.71;72.07
73842;BME280;62184;52.006;5.924;2022-11-15T05:16:43;99985.47;;;12.70;71.83
73842;BME280;62184;52.006;5.924;2022-11-15T05:19:10;99980.97;;;12.70;72.02
73842;BME280;62184;52.006;5.924;2022-11-15T05:21:36;99977.13;;;12.76;72.09
73842;BME280;62184;52.006;5.924;2022-11-15T05:24:04;99982.28;;;12.80;71.85
73842;BME280;62184;52.006;5.924;2022-11-15T05:26:32;99969.44;;;12.87;71.71
73842;BME280;62184;52.006;5.924;2022-11-15T05:28:59;99970.16;;;12.90;71.62
73842;BME280;62184;52.006;5.924;2022-11-15T05:31:30;99958.41;;;12.93;71.19
73842;BME280;62184;52.006;5.924;2022-11-15T05:33:58;99967.41;;;12.92;71.35
73842;BME280;62184;52.006;5.924;2022-11-15T05:36:30;99959.28;;;12.93;71.24
73842;BME280;62184;52.006;5.924;2022-11-15T05:39:02;99975.25;;;12.96;71.22
73842;BME280;62184;52.006;5.924;2022-11-15T05:41:33;99972.38;;;12.99;70.66
73842;BME280;62184;52.006;5.924;2022-11-15T05:44:06;99975.81;;;13.03;70.77
73842;BME280;62184;52.006;5.924;2022-11-15T05:46:39;99966.97;;;13.01;70.81
73842;BME280;62184;52.006;5.924;2022-11-15T05:49:10;99979.66;;;12.97;71.04
73842;BME280;62184;52.006;5.924;2022-11-15T05:51:42;99972.69;;;12.93;71.07
73842;BME280;62184;52.006;5.924;2022-11-15T05:54:11;99977.19;;;12.93;71.19
73842;BME280;62184;52.006;5.924;2022-11-15T05:56:38;99981.59;;;12.94;71.00
73842;BME280;62184;52.006;5.924;2022-11-15T05:59:05;99986.22;;;12.90;70.98
73842;BME280;62184;52.006;5.924;2022-11-15T06:01:34;99987.41;;;12.85;71.21
73842;BME280;62184;52.006;5.924;2022-11-15T06:04:03;99983.84;;;12.84;71.43
73842;BME280;62184;52.006;5.924;2022-11-15T06:06:29;99983.78;;;12.86;71.36
73842;BME280;62184;52.006;5.924;2022-11-15T06:08:56;99985.59;;;12.85;71.34
73842;BME280;62184;52.006;5.924;2022-11-15T06:11:22;99990.81;;;12.88;71.31
73842;BME280;62184;52.006;5.924;2022-11-15T06:13:49;99987.97;;;12.91;71.57
73842;BME280;62184;52.006;5.924;2022-11-15T06:16:15;99992.47;;;12.91;71.42
73842;BME280;62184;52.006;5.924;2022-11-15T06:18:41;99990.53;;;12.94;71.57
73842;BME280;62184;52.006;5.924;2022-11-15T06:21:10;99990.44;;;12.96;71.61
73842;BME280;62184;52.006;5.924;2022-11-15T06:23:37;99986.72;;;12.98;71.31
73842;BME280;62184;52.006;5.924;2022-11-15T06:26:03;99984.84;;;13.00;71.35
73842;BME280;62184;52.006;5.924;2022-11-15T06:28:30;99985.84;;;12.98;71.50
73842;BME280;62184;52.006;5.924;2022-11-15T06:31:02;99982.41;;;12.96;71.42
73842;BME280;62184;52.006;5.924;2022-11-15T06:33:29;99984.44;;;12.91;71.83
73842;BME280;62184;52.006;5.924;2022-11-15T06:35:55;99984.50;;;12.89;71.99
73842;BME280;62184;52.006;5.924;2022-11-15T06:38:29;99992.63;;;12.88;72.02
73842;BME280;62184;52.006;5.924;2022-11-15T06:41:01;99995.94;;;12.93;71.88
73842;BME280;62184;52.006;5.924;2022-11-15T06:43:28;99993.41;;;12.90;72.18
73842;BME280;62184;52.006;5.924;2022-11-15T06:45:54;99994.22;;;12.92;72.00
73842;BME280;62184;52.006;5.924;2022-11-15T06:48:21;100002.31;;;12.90;72.17
73842;BME280;62184;52.006;5.924;2022-11-15T06:50:50;100004.94;;;12.92;72.00
73842;BME280;62184;52.006;5.924;2022-11-15T06:53:17;100007.78;;;12.89;72.37
73842;BME280;62184;52.006;5.924;2022-11-15T06:55:46;100004.06;;;12.91;72.25
73842;BME280;62184;52.006;5.924;2022-11-15T06:58:13;100011.91;;;12.96;72.13
73842;BME280;62184;52.006;5.924;2022-11-15T07:00:40;100010.47;;;12.89;72.26
73842;BME280;62184;52.006;5.924;2022-11-15T07:03:07;100010.16;;;12.95;72.19
73842;BME280;62184;52.006;5.924;2022-11-15T07:05:34;100005.72;;;12.94;72.25
73842;BME280;62184;52.006;5.924;2022-11-15T07:08:01;100006.47;;;12.97;72.39
73842;BME280;62184;52.006;5.924;2022-11-15T07:10:28;100010.72;;;13.01;72.36
73842;BME280;62184;52.006;5.924;2022-11-15T07:12:58;100013.97;;;13.08;72.03
73842;BME280;62184;52.006;5.924;2022-11-15T07:15:25;100008.53;;;13.10;71.88
73842;BME280;62184;52.006;5.924;2022-11-15T07:17:52;100014.84;;;13.09;72.02
73842;BME280;62184;52.006;5.924;2022-11-15T07:20:18;100012.97;;;13.11;71.68
73842;BME280;62184;52.006;5.924;2022-11-15T07:22:45;100012.31;;;13.05;71.92
73842;BME280;62184;52.006;5.924;2022-11-15T07:25:11;100013.72;;;12.95;72.27
73842;BME280;62184;52.006;5.924;2022-11-15T07:27:38;100023.06;;;12.87;72.24
73842;BME280;62184;52.006;5.924;2022-11-15T07:30:08;100028.72;;;12.81;72.93
73842;BME280;62184;52.006;5.924;2022-11-15T07:32:35;100020.81;;;12.78;73.12
73842;BME280;62184;52.006;5.924;2022-11-15T07:35:02;100028.47;;;12.66;73.06
73842;BME280;62184;52.006;5.924;2022-11-15T07:37:29;100027.88;;;12.60;73.59
73842;BME280;62184;52.006;5.924;2022-11-15T07:39:55;100028.09;;;12.55;73.71
73842;BME280;62184;52.006;5.924;2022-11-15T07:42:21;100028.25;;;12.52;74.14
73842;BME280;62184;52.006;5.924;2022-11-15T07:44:48;100030.03;;;12.52;74.08
73842;BME280;62184;52.006;5.924;2022-11-15T07:47:17;100036.22;;;12.54;74.40
73842;BME280;62184;52.006;5.924;2022-11-15T07:49:43;100033.53;;;12.54;74.43
73842;BME280;62184;52.006;5.924;2022-11-15T07:52:10;100035.34;;;12.53;74.74
73842;BME280;62184;52.006;5.924;2022-11-15T07:54:36;100031.63;;;12.56;74.55
73842;BME280;62184;52.006;5.924;2022-11-15T07:57:02;100031.56;;;12.57;74.67
73842;BME280;62184;52.006;5.924;2022-11-15T07:59:29;100028.75;;;12.60;74.72
73842;BME280;62184;52.006;5.924;2022-11-15T08:01:56;100036.66;;;12.63;74.62
73842;BME280;62184;52.006;5.924;2022-11-15T08:04:24;100026.72;;;12.65;74.68
73842;BME280;62184;52.006;5.924;2022-11-15T08:06:51;100032.81;;;12.69;74.43
73842;BME280;62184;52.006;5.924;2022-11-15T08:09:17;100029.78;;;12.77;74.40
73842;BME280;62184;52.006;5.924;2022-11-15T08:11:44;100031.22;;;12.84;74.45
73842;BME280;62184;52.006;5.924;2022-11-15T08:14:10;100031.72;;;12.92;73.95
73842;BME280;62184;52.006;5.924;2022-11-15T08:16:36;100030.94;;;12.90;73.83
73842;BME280;62184;52.006;5.924;2022-11-15T08:19:03;100031.66;;;12.93;74.15
73842;BME280;62184;52.006;5.924;2022-11-15T08:21:32;100024.34;;;12.97;73.97
73842;BME280;62184;52.006;5.924;2022-11-15T08:23:58;100022.31;;;13.02;74.12
73842;BME280;62184;52.006;5.924;2022-11-15T08:26:25;100028.25;;;13.09;74.02
73842;BME280;62184;52.006;5.924;2022-11-15T08:28:52;100019.13;;;13.13;73.78
73842;BME280;62184;52.006;5.924;2022-11-15T08:31:19;100026.94;;;13.17;73.41
73842;BME280;62184;52.006;5.924;2022-11-15T08:33:45;100004.31;;;13.23;73.46
73842;BME280;62184;52.006;5.924;2022-11-15T08:36:13;100007.66;;;13.28;73.06
73842;BME280;62184;52.006;5.924;2022-11-15T08:38:44;100010.25;;;13.29;73.11
73842;BME280;62184;52.006;5.924;2022-11-15T08:41:13;100015.31;;;13.35;73.14
73842;BME280;62184;52.006;5.924;2022-11-15T08:43:48;100006.13;;;13.41;72.77
73842;BME280;62184;52.006;5.924;2022-11-15T08:46:14;100003.38;;;13.42;72.65
73842;BME280;62184;52.006;5.924;2022-11-15T08:48:41;100008.50;;;13.47;72.67
73842;BME280;62184;52.006;5.924;2022-11-15T08:51:07;100010.88;;;13.53;72.41
73842;BME280;62184;52.006;5.924;2022-11-15T08:53:34;100007.31;;;13.53;72.35
73842;BME280;62184;52.006;5.924;2022-11-15T08:56:06;100011.09;;;13.49;72.03
73842;BME280;62184;52.006;5.924;2022-11-15T08:58:33;100009.59;;;13.43;72.22
73842;BME280;62184;52.006;5.924;2022-11-15T09:01:00;100022.06;;;13.44;72.50
73842;BME280;62184;52.006;5.924;2022-11-15T09:03:27;100024.50;;;13.49;72.62
73842;BME280;62184;52.006;5.924;2022-11-15T09:05:57;100016.19;;;13.55;72.58
73842;BME280;62184;52.006;5.924;2022-11-15T09:08:25;100016.00;;;13.58;72.04
73842;BME280;62184;52.006;5.924;2022-11-15T09:10:54;100013.97;;;13.63;72.03
73842;BME280;62184;52.006;5.924;2022-11-15T09:13:23;100007.50;;;13.67;72.06
73842;BME280;62184;52.006;5.924;2022-11-15T09:15:50;100004.47;;;13.73;71.75
73842;BME280;62184;52.006;5.924;2022-11-15T09:18:16;100009.72;;;13.76;71.79
73842;BME280;62184;52.006;5.924;2022-11-15T09:20:43;99996.28;;;13.76;71.47
73842;BME280;62184;52.006;5.924;2022-11-15T09:23:11;100000.84;;;13.74;71.31
73842;BME280;62184;52.006;5.924;2022-11-15T09:25:37;100009.16;;;13.69;71.24
73842;BME280;62184;52.006;5.924;2022-11-15T09:28:06;100002.44;;;13.61;71.00
73842;BME280;62184;52.006;5.924;2022-11-15T09:30:35;99993.03;;;13.52;70.96
73842;BME280;62184;52.006;5.924;2022-11-15T09:33:06;99995.00;;;13.49;71.24
73842;BME280;62184;52.006;5.924;2022-11-15T09:35:33;99989.56;;;13.50;71.26
73842;BME280;62184;52.006;5.924;2022-11-15T09:37:59;99988.53;;;13.53;71.31
73842;BME280;62184;52.006;5.924;2022-11-15T09:40:26;99980.63;;;13.50;71.10
73842;BME280;62184;52.006;5.924;2022-11-15T09:46:05;99975.34;;;13.48;70.78
73842;BME280;62184;52.006;5.924;2022-11-15T09:48:53;99982.38;;;13.51;71.07
73842;BME280;62184;52.006;5.924;2022-11-15T09:51:25;99982.06;;;13.57;70.83
73842;BME280;62184;52.006;5.924;2022-11-15T09:54:00;99976.47;;;13.61;70.98
73842;BME280;62184;52.006;5.924;2022-11-15T09:56:32;99975.13;;;13.70;70.50
73842;BME280;62184;52.006;5.924;2022-11-15T09:59:13;99976.09;;;13.69;70.69
73842;BME280;62184;52.006;5.924;2022-11-15T10:02:04;99966.75;;;13.76;70.33
73842;BME280;62184;52.006;5.924;2022-11-15T10:04:44;99961.00;;;13.84;70.30
73842;BME280;62184;52.006;5.924;2022-11-15T10:07:16;99964.16;;;13.92;70.04
73842;BME280;62184;52.006;5.924;2022-11-15T10:09:52;99960.28;;;13.97;70.20
73842;BME280;62184;52.006;5.924;2022-11-15T10:12:22;99958.38;;;13.99;69.41
73842;BME280;62184;52.006;5.924;2022-11-15T10:14:57;99954.06;;;13.97;69.77
73842;BME280;62184;52.006;5.924;2022-11-15T10:17:43;99946.59;;;14.02;69.83
73842;BME280;62184;52.006;5.924;2022-11-15T10:20:28;99947.31;;;14.05;69.34
73842;BME280;62184;52.006;5.924;2022-11-15T10:22:59;99945.25;;;14.10;69.05
73842;BME280;62184;52.006;5.924;2022-11-15T10:25:28;99942.09;;;14.02;68.66
73842;BME280;62184;52.006;5.924;2022-11-15T10:27:58;99946.06;;;13.95;68.88
73842;BME280;62184;52.006;5.924;2022-11-15T10:30:33;99928.38;;;13.91;68.08
73842;BME280;62184;52.006;5.924;2022-11-15T10:33:17;99938.56;;;13.85;68.62
73842;BME280;62184;52.006;5.924;2022-11-15T10:35:48;99942.94;;;13.87;68.82
73842;BME280;62184;52.006;5.924;2022-11-15T10:38:14;99943.78;;;13.88;68.68
73842;BME280;62184;52.006;5.924;2022-11-15T10:40:41;99944.34;;;13.94;68.64
73842;BME280;62184;52.006;5.924;2022-11-15T10:43:14;99937.56;;;13.87;67.50
73842;BME280;62184;52.006;5.924;2022-11-15T10:45:44;99940.94;;;13.73;67.21
73842;BME280;62184;52.006;5.924;2022-11-15T10:48:24;99926.59;;;13.57;66.45
73842;BME280;62184;52.006;5.924;2022-11-15T10:50:52;99918.88;;;13.51;66.99
73842;BME280;62184;52.006;5.924;2022-11-15T10:53:31;99900.56;;;13.59;67.41
73842;BME280;62184;52.006;5.924;2022-11-15T10:56:07;99910.72;;;13.70;67.46
73842;BME280;62184;52.006;5.924;2022-11-15T10:58:41;99894.84;;;13.82;66.67
73842;BME280;62184;52.006;5.924;2022-11-15T11:01:15;99891.13;;;13.85;66.42
73842;BME280;62184;52.006;5.924;2022-11-15T11:03:58;99901.00;;;13.85;65.86
73842;BME280;62184;52.006;5.924;2022-11-15T11:06:25;99904.09;;;13.77;65.69
73842;BME280;62184;52.006;5.924;2022-11-15T11:08:56;99906.84;;;13.75;65.46
73842;BME280;62184;52.006;5.924;2022-11-15T11:11:24;99898.56;;;13.80;64.91
73842;BME280;62184;52.006;5.924;2022-11-15T11:14:11;99899.81;;;13.73;64.44
73842;BME280;62184;52.006;5.924;2022-11-15T11:16:44;99897.06;;;13.74;64.83
73842;BME280;62184;52.006;5.924;2022-11-15T11:19:31;99887.28;;;13.73;64.42
73842;BME280;62184;52.006;5.924;2022-11-15T11:22:11;99883.72;;;13.73;64.27
73842;BME280;62184;52.006;5.924;2022-11-15T11:24:49;99890.41;;;13.81;64.17
73842;BME280;62184;52.006;5.924;2022-11-15T11:27:43;99875.03;;;13.85;64.17
73842;BME280;62184;52.006;5.924;2022-11-15T11:30:50;99882.66;;;13.93;63.74
73842;BME280;62184;52.006;5.924;2022-11-15T11:33:31;99878.75;;;13.98;63.38
73842;BME280;62184;52.006;5.924;2022-11-15T11:36:16;99878.16;;;13.93;62.45
73842;BME280;62184;52.006;5.924;2022-11-15T11:38:56;99874.88;;;13.88;62.25
73842;BME280;62184;52.006;5.924;2022-11-15T11:41:41;99869.31;;;13.91;61.94
73842;BME280;62184;52.006;5.924;2022-11-15T11:44:27;99866.47;;;13.94;61.98
73842;BME280;62184;52.006;5.924;2022-11-15T11:47:00;99872.28;;;14.02;61.43
73842;BME280;62184;52.006;5.924;2022-11-15T11:49:34;99870.63;;;14.00;59.83
73842;BME280;62184;52.006;5.924;2022-11-15T11:52:14;99875.81;;;13.87;59.88
73842;BME280;62184;52.006;5.924;2022-11-15T11:54:54;99870.88;;;13.79;59.79
73842;BME280;62184;52.006;5.924;2022-11-15T11:57:33;99872.97;;;13.73;59.66
73842;BME280;62184;52.006;5.924;2022-11-15T12:00:16;99872.28;;;13.69;59.51
73842;BME280;62184;52.006;5.924;2022-11-15T12:02:48;99865.44;;;13.64;59.48
73842;BME280;62184;52.006;5.924;2022-11-15T12:05:28;99861.09;;;13.61;59.73
73842;BME280;62184;52.006;5.924;2022-11-15T12:08:16;99848.63;;;13.60;59.54
73842;BME280;62184;52.006;5.924;2022-11-15T12:10:59;99849.66;;;13.58;59.05
73842;BME280;62184;52.006;5.924;2022-11-15T12:13:31;99851.72;;;13.53;59.01
73842;BME280;62184;52.006;5.924;2022-11-15T12:16:04;99830.34;;;13.51;58.66
73842;BME280;62184;52.006;5.924;2022-11-15T12:18:35;99824.91;;;13.53;58.64
73842;BME280;62184;52.006;5.924;2022-11-15T12:21:06;99820.06;;;13.59;58.55
73842;BME280;62184;52.006;5.924;2022-11-15T12:23:50;99817.16;;;13.64;58.54
73842;BME280;62184;52.006;5.924;2022-11-15T12:26:24;99805.81;;;13.74;58.69
73842;BME280;62184;52.006;5.924;2022-11-15T12:28:59;99810.75;;;13.82;58.39
73842;BME280;62184;52.006;5.924;2022-11-15T12:31:35;99804.22;;;13.88;58.57
73842;BME280;62184;52.006;5.924;2022-11-15T12:34:15;99810.19;;;13.93;58.51
73842;BME280;62184;52.006;5.924;2022-11-15T12:36:55;99801.25;;;13.92;57.99
73842;BME280;62184;52.006;5.924;2022-11-15T12:42:40;99782.28;;;13.79;57.25
73842;BME280;62184;52.006;5.924;2022-11-15T12:45:27;99772.50;;;13.78;57.15
73842;BME280;62184;52.006;5.924;2022-11-15T12:51:19;99769.41;;;13.86;56.39
73842;BME280;62184;52.006;5.924;2022-11-15T12:53:47;99753.88;;;13.91;56.43
73842;BME280;62184;52.006;5.924;2022-11-15T12:56:26;99750.00;;;13.97;56.73
73842;BME280;62184;52.006;5.924;2022-11-15T12:58:55;99751.19;;;14.07;56.18
73842;BME280;62184;52.006;5.924;2022-11-15T13:04:28;99736.38;;;14.15;56.29
73842;BME280;62184;52.006;5.924;2022-11-15T13:06:58;99728.59;;;14.27;55.69
73842;BME280;62184;52.006;5.924;2022-11-15T13:09:52;99731.03;;;14.31;55.48
73842;BME280;62184;52.006;5.924;2022-11-15T13:15:45;99717.38;;;14.50;54.86
73842;BME280;62184;52.006;5.924;2022-11-15T13:18:33;99711.56;;;14.42;54.10
73842;BME280;62184;52.006;5.924;2022-11-15T13:21:03;99710.22;;;14.35;54.35
73842;BME280;62184;52.006;5.924;2022-11-15T13:23:31;99706.66;;;14.34;54.60
73842;BME280;62184;52.006;5.924;2022-11-15T13:26:08;99706.94;;;14.30;54.38
73842;BME280;62184;52.006;5.924;2022-11-15T13:28:43;99701.56;;;14.30;54.06
73842;BME280;62184;52.006;5.924;2022-11-15T13:31:30;99702.59;;;14.27;53.56
73842;BME280;62184;52.006;5.924;2022-11-15T13:34:14;99690.19;;;14.25;53.50
73842;BME280;62184;52.006;5.924;2022-11-15T13:36:51;99698.34;;;14.23;53.59
73842;BME280;62184;52.006;5.924;2022-11-15T13:39:26;99692.13;;;14.23;53.94
73842;BME280;62184;52.006;5.924;2022-11-15T13:41:54;99685.78;;;14.24;54.03